Time;durP1;ratioP1;P1;durP2;ratioP2;P2;SDS_P1;SDS_P2;PMS_P1;PMS_P2;Temp;Humidity;BMP_temperature;BMP_pressure;BME280_temperature;BME280_humidity;BME280_pressure;Samples;Min_cycle;Max_cycle;Signal;HPM_P1;HPM_P2
2022/01/12 00:01:42;;;;;;;47.57;13.20;;;-0.10;41.30;;;;;;4980959;28;20456;-63
2022/01/12 00:04:09;;;;;;;48.90;14.63;;;-0.10;41.60;;;;;;4970093;28;20480;-63
2022/01/12 00:06:36;;;;;;;47.67;12.70;;;-0.20;41.80;;;;;;4968807;28;20851;-63
2022/01/12 00:09:06;;;;;;;52.83;15.80;;;-0.20;42.50;;;;;;4967928;28;20469;-63
2022/01/12 00:11:33;;;;;;;49.10;14.33;;;-0.30;42.80;;;;;;4981905;28;20484;-63
2022/01/12 00:14:01;;;;;;;49.87;15.47;;;-0.20;43.00;;;;;;4969070;28;20477;-63
2022/01/12 00:16:28;;;;;;;51.13;14.10;;;-0.20;42.80;;;;;;4969168;28;20454;-63
2022/01/12 00:18:55;;;;;;;49.27;14.00;;;-0.20;42.60;;;;;;4968683;28;20583;-62
2022/01/12 00:21:21;;;;;;;54.53;14.80;;;-0.10;42.90;;;;;;4971451;28;20469;-63
2022/01/12 00:23:48;;;;;;;48.90;15.30;;;-0.20;42.70;;;;;;4969753;28;20477;-63
2022/01/12 00:26:26;;;;;;;49.90;14.10;;;-0.20;42.60;;;;;;4967973;28;20477;-62
2022/01/12 00:34:23;;;;;;;53.47;16.47;;;-0.20;42.50;;;;;;4972841;28;20851;-63
2022/01/12 00:36:49;;;;;;;52.80;15.23;;;-0.30;42.70;;;;;;4972044;28;20458;-63
2022/01/12 00:39:16;;;;;;;52.60;14.87;;;-0.20;42.90;;;;;;4972329;28;20457;-63
2022/01/12 00:41:43;;;;;;;53.17;16.40;;;-0.30;43.10;;;;;;4971334;28;20469;-63
2022/01/12 00:44:21;;;;;;;49.10;15.17;;;-0.20;42.90;;;;;;4972308;28;20477;-63
2022/01/12 00:46:51;;;;;;;51.07;15.40;;;-0.20;43.40;;;;;;4971828;28;20501;-63
2022/01/12 00:49:18;;;;;;;51.63;14.70;;;-0.30;42.60;;;;;;4971246;28;20465;-62
2022/01/12 00:51:47;;;;;;;52.37;16.00;;;-0.20;42.40;;;;;;4974096;28;20815;-63
2022/01/12 00:54:14;;;;;;;49.97;15.37;;;-0.20;42.20;;;;;;4975019;28;21007;-63
2022/01/12 00:56:40;;;;;;;50.50;15.60;;;-0.30;42.20;;;;;;4972361;28;20461;-64
2022/01/12 00:59:07;;;;;;;52.23;15.67;;;-0.30;42.40;;;;;;4971497;28;20461;-63
2022/01/12 01:01:34;;;;;;;52.20;14.30;;;-0.30;42.50;;;;;;4969685;28;20849;-65
2022/01/12 01:04:02;;;;;;;50.70;15.10;;;-0.20;42.30;;;;;;4971545;28;20484;-63
2022/01/12 01:06:30;;;;;;;50.23;15.73;;;-0.30;42.10;;;;;;4968607;28;20487;-64
2022/01/12 01:08:57;;;;;;;56.67;15.90;;;-0.20;42.40;;;;;;4972028;28;20829;-63
2022/01/12 01:11:24;;;;;;;54.00;16.50;;;-0.30;42.40;;;;;;4969055;28;20461;-63
2022/01/12 01:13:58;;;;;;;53.93;16.27;;;-0.30;42.60;;;;;;4973688;28;20868;-63
2022/01/12 01:16:30;;;;;;;52.23;16.40;;;-0.20;42.80;;;;;;4973926;28;20540;-65
2022/01/12 01:27:11;;;;;;;52.67;16.27;;;-0.30;42.70;;;;;;5001539;28;20513;-65
2022/01/12 01:29:38;;;;;;;52.87;16.70;;;-0.40;42.50;;;;;;5011515;28;20460;-66
2022/01/12 01:32:07;;;;;;;52.20;17.80;;;-0.40;42.50;;;;;;4994535;28;20453;-66
2022/01/12 01:34:34;;;;;;;53.47;15.97;;;-0.40;42.40;;;;;;4991770;28;20481;-66
2022/01/12 01:37:02;;;;;;;54.87;19.03;;;-0.40;42.30;;;;;;4991887;28;20457;-66
2022/01/12 01:39:29;;;;;;;48.97;14.87;;;-0.40;42.80;;;;;;4992886;28;20480;-66
2022/01/12 01:42:00;;;;;;;55.83;17.07;;;-0.50;42.60;;;;;;5011304;28;20555;-67
2022/01/12 01:55:19;;;;;;;53.10;16.57;;;-0.60;42.80;;;;;;5010369;28;20843;-66
2022/01/12 01:57:46;;;;;;;53.77;17.00;;;-0.60;42.90;;;;;;5011272;28;20452;-66
2022/01/12 02:00:18;;;;;;;55.33;16.50;;;-0.60;43.10;;;;;;5011042;28;20466;-66
2022/01/12 02:02:46;;;;;;;56.13;19.07;;;-0.70;43.00;;;;;;5010643;28;20464;-66
2022/01/12 02:05:13;;;;;;;55.43;16.07;;;-0.70;43.00;;;;;;5010025;28;20487;-67
2022/01/12 02:07:41;;;;;;;55.30;17.23;;;-0.70;43.00;;;;;;5010404;28;20480;-66
2022/01/12 02:10:09;;;;;;;53.73;17.33;;;-0.70;42.90;;;;;;5010568;28;20459;-66
2022/01/12 02:12:36;;;;;;;52.27;16.90;;;-0.70;43.00;;;;;;5010898;28;20506;-66
2022/01/12 02:15:12;;;;;;;55.33;17.83;;;-0.80;42.80;;;;;;5009908;28;20480;-66
2022/01/12 02:17:51;;;;;;;53.57;17.20;;;-0.80;42.70;;;;;;5010572;28;20462;-66
2022/01/12 02:35:07;;;;;;;55.27;17.73;;;-0.80;42.90;;;;;;5010337;28;20487;-66
2022/01/12 02:37:01;;;;;;;57.20;18.03;;;-0.30;44.90;;;;;;5009529;28;20586;-66
2022/01/12 02:39:51;;;;;;;58.00;19.80;;;-0.30;44.80;;;;;;5009594;28;20484;-67
2022/01/12 02:42:19;;;;;;;54.73;17.40;;;-0.20;44.80;;;;;;5009769;28;20550;-66
2022/01/12 02:55:46;;;;;;;55.67;17.83;;;0.20;44.40;;;;;;5009193;28;20478;-66
2022/01/12 02:58:13;;;;;;;55.33;19.30;;;0.30;44.50;;;;;;5009845;28;20467;-67
2022/01/12 03:01:00;;;;;;;52.43;18.37;;;0.30;44.40;;;;;;5009277;28;20463;-66
2022/01/12 03:03:31;;;;;;;57.37;19.30;;;0.40;44.20;;;;;;5009926;28;20463;-67
2022/01/12 03:06:01;;;;;;;56.50;17.97;;;0.40;44.20;;;;;;5007378;28;20476;-66
2022/01/12 03:08:29;;;;;;;52.67;16.60;;;0.50;44.20;;;;;;5009432;28;20492;-66
2022/01/12 03:10:57;;;;;;;54.63;18.17;;;0.50;44.20;;;;;;5010232;28;20472;-66
2022/01/12 03:13:24;;;;;;;60.30;19.93;;;0.60;44.20;;;;;;5009380;28;20486;-66
2022/01/12 03:15:50;;;;;;;54.10;17.47;;;0.60;44.10;;;;;;5009142;28;20831;-66
2022/01/12 03:18:18;;;;;;;58.10;18.97;;;0.60;44.00;;;;;;5009785;28;20557;-66
2022/01/12 03:20:45;;;;;;;57.53;18.03;;;0.60;43.90;;;;;;5008148;28;20488;-67
2022/01/12 03:23:14;;;;;;;57.23;17.93;;;0.70;44.00;;;;;;5009898;28;20522;-66
2022/01/12 03:25:41;;;;;;;57.20;18.30;;;0.70;43.70;;;;;;5008331;28;20495;-66
2022/01/12 03:28:09;;;;;;;57.03;19.23;;;0.70;43.60;;;;;;5008332;28;20495;-67
2022/01/12 03:30:46;;;;;;;56.47;18.87;;;0.80;43.30;;;;;;5008256;28;20562;-66
2022/01/12 03:33:29;;;;;;;54.17;17.53;;;0.80;43.20;;;;;;5008899;28;20870;-66
2022/01/12 03:36:22;;;;;;;55.37;17.60;;;0.80;43.20;;;;;;5007955;28;20484;-66
2022/01/12 03:38:49;;;;;;;56.70;17.53;;;0.80;43.00;;;;;;5008891;28;20448;-66
2022/01/12 03:41:17;;;;;;;54.50;18.20;;;0.80;42.90;;;;;;5008508;28;20459;-66
2022/01/12 03:43:45;;;;;;;53.87;16.63;;;0.80;42.80;;;;;;5009196;28;20483;-67
2022/01/12 03:46:13;;;;;;;52.40;17.33;;;0.80;42.80;;;;;;5007924;28;20490;-66
2022/01/12 03:48:40;;;;;;;55.47;16.93;;;0.80;42.70;;;;;;5008617;28;21015;-67
2022/01/12 03:51:06;;;;;;;52.70;18.47;;;0.90;42.90;;;;;;5008576;28;21034;-66
2022/01/12 03:53:33;;;;;;;56.30;18.43;;;0.80;42.80;;;;;;5008824;28;20464;-66
2022/01/12 03:56:00;;;;;;;56.27;17.73;;;0.80;42.80;;;;;;5008308;28;20479;-67
2022/01/12 03:58:27;;;;;;;57.50;19.80;;;0.90;42.90;;;;;;5008158;28;20460;-67
2022/01/12 04:00:55;;;;;;;57.80;18.90;;;0.90;42.70;;;;;;5008655;28;20451;-66
2022/01/12 04:03:21;;;;;;;59.33;18.20;;;0.90;42.70;;;;;;5008226;28;20456;-67
2022/01/12 04:08:32;;;;;;;54.53;17.13;;;0.70;42.80;;;;;;5006543;28;20573;-66
2022/01/12 04:11:02;;;;;;;53.83;18.10;;;0.80;42.90;;;;;;5008523;28;20547;-66
2022/01/12 04:13:30;;;;;;;56.70;18.23;;;0.80;43.00;;;;;;5009068;28;20459;-66
2022/01/12 04:16:00;;;;;;;55.60;16.03;;;0.80;43.00;;;;;;5008472;28;20992;-67
2022/01/12 04:18:26;;;;;;;59.73;18.60;;;0.80;43.10;;;;;;5008908;28;20462;-66
2022/01/12 04:20:53;;;;;;;53.60;17.80;;;0.80;43.00;;;;;;5007152;28;20468;-66
2022/01/12 04:23:23;;;;;;;57.67;18.10;;;0.90;42.90;;;;;;5008954;28;20459;-67
2022/01/12 04:25:51;;;;;;;54.93;18.63;;;0.90;42.80;;;;;;5008107;28;20492;-66
2022/01/12 04:28:19;;;;;;;59.70;20.50;;;0.90;42.80;;;;;;5008468;28;20841;-66
2022/01/12 04:30:46;;;;;;;72.13;19.73;;;0.90;42.80;;;;;;5007562;28;20468;-66
2022/01/12 04:33:14;;;;;;;56.10;18.33;;;1.00;43.40;;;;;;5008714;28;20471;-66
2022/01/12 04:35:46;;;;;;;52.63;16.73;;;1.00;42.60;;;;;;5008874;28;20475;-66
2022/01/12 04:38:14;;;;;;;53.83;17.03;;;1.00;42.60;;;;;;5008226;28;20550;-66
2022/01/12 04:40:41;;;;;;;56.80;19.70;;;1.00;42.40;;;;;;5007273;28;20474;-67
2022/01/12 04:43:09;;;;;;;54.50;17.50;;;1.00;42.40;;;;;;5008515;28;20467;-67
2022/01/12 04:45:45;;;;;;;53.00;18.07;;;1.00;42.30;;;;;;5008432;28;20503;-67
2022/01/12 04:48:33;;;;;;;57.17;19.60;;;1.00;42.30;;;;;;5008106;28;20487;-67
2022/01/12 04:51:01;;;;;;;55.10;18.00;;;1.00;42.30;;;;;;5007395;28;20973;-66
2022/01/12 04:53:30;;;;;;;54.70;17.90;;;1.10;42.40;;;;;;5008491;28;20460;-66
2022/01/12 04:55:58;;;;;;;56.23;17.10;;;1.10;42.30;;;;;;5007199;28;20487;-67
2022/01/12 04:58:27;;;;;;;53.17;18.57;;;1.10;42.20;;;;;;5007914;28;20456;-67
2022/01/12 05:00:58;;;;;;;55.03;20.80;;;1.10;42.30;;;;;;5005266;28;20514;-66
2022/01/12 05:06:36;;;;;;;57.20;18.00;;;1.10;42.40;;;;;;5006339;28;20576;-67
2022/01/12 05:09:29;;;;;;;59.20;18.60;;;1.10;42.30;;;;;;5007766;28;21118;-67
2022/01/12 05:14:47;;;;;;;59.10;19.60;;;1.00;42.20;;;;;;5009306;28;20454;-67
2022/01/12 05:17:14;;;;;;;53.40;17.07;;;1.00;42.20;;;;;;5011467;28;20467;-66
2022/01/12 05:19:41;;;;;;;59.90;18.10;;;1.00;42.30;;;;;;5011497;28;20983;-67
2022/01/12 05:22:09;;;;;;;59.67;19.10;;;1.00;42.30;;;;;;5008391;28;20455;-67
2022/01/12 05:24:36;;;;;;;52.87;16.63;;;1.00;42.50;;;;;;5011008;28;20807;-67
2022/01/12 05:27:03;;;;;;;57.90;19.00;;;1.00;42.50;;;;;;5010624;28;20832;-67
2022/01/12 05:29:30;;;;;;;58.60;20.60;;;1.00;42.40;;;;;;5008075;28;20476;-67
2022/01/12 05:31:56;;;;;;;57.67;19.00;;;1.00;42.30;;;;;;5010643;28;20481;-67
2022/01/12 05:34:25;;;;;;;53.87;17.57;;;1.00;42.40;;;;;;5009189;28;21019;-67
2022/01/12 05:36:52;;;;;;;53.87;18.20;;;1.00;42.50;;;;;;5010967;28;20547;-67
2022/01/12 05:39:20;;;;;;;55.83;18.23;;;1.00;42.60;;;;;;5010354;28;20462;-67
2022/01/12 05:41:47;;;;;;;59.07;18.47;;;1.00;42.50;;;;;;5011749;28;20471;-67
2022/01/12 05:44:13;;;;;;;54.67;16.93;;;1.00;42.50;;;;;;5010931;28;20470;-67
2022/01/12 05:46:42;;;;;;;53.30;17.63;;;1.00;42.40;;;;;;5012723;28;20459;-67
2022/01/12 05:51:53;;;;;;;56.00;18.77;;;1.00;42.30;;;;;;5011120;28;20443;-67
2022/01/12 05:54:21;;;;;;;54.00;15.13;;;1.10;42.20;;;;;;5010540;28;21015;-67
2022/01/12 05:56:48;;;;;;;55.87;18.40;;;1.10;42.10;;;;;;5012093;28;20532;-67
2022/01/12 05:59:15;;;;;;;54.37;18.13;;;1.10;42.00;;;;;;5011852;28;21004;-67
2022/01/12 06:01:41;;;;;;;53.80;16.90;;;1.10;41.70;;;;;;5011590;28;20964;-66
2022/01/12 06:04:08;;;;;;;53.93;15.50;;;1.10;41.50;;;;;;5010718;28;20464;-67
2022/01/12 06:06:35;;;;;;;53.93;18.00;;;1.10;41.30;;;;;;5011467;28;20857;-67
2022/01/12 06:09:02;;;;;;;50.53;14.20;;;1.00;41.10;;;;;;5012140;28;20490;-67
2022/01/12 06:11:30;;;;;;;46.70;11.80;;;1.00;40.70;;;;;;5011750;28;20777;-67
2022/01/12 06:13:58;;;;;;;47.57;13.30;;;1.00;39.00;;;;;;5010722;28;20460;-67
2022/01/12 06:16:27;;;;;;;47.57;13.40;;;0.90;39.00;;;;;;5011999;28;20566;-67
2022/01/12 06:18:56;;;;;;;51.37;15.57;;;0.80;39.40;;;;;;5011105;28;20495;-67
2022/01/12 06:21:22;;;;;;;47.50;12.37;;;0.80;39.70;;;;;;5011223;28;21136;-67
2022/01/12 06:23:49;;;;;;;44.60;11.50;;;0.80;39.90;;;;;;5011526;28;20465;-67
2022/01/12 06:26:16;;;;;;;44.67;11.50;;;0.70;38.90;;;;;;5010333;28;20507;-67
2022/01/12 06:28:54;;;;;;;45.63;11.00;;;0.70;38.30;;;;;;5011952;28;20486;-67
2022/01/12 06:31:26;;;;;;;51.60;13.70;;;0.70;38.30;;;;;;5010917;28;20468;-67
2022/01/12 06:33:53;;;;;;;49.03;13.53;;;0.60;38.60;;;;;;5011089;28;20464;-66
2022/01/12 06:36:22;;;;;;;46.60;11.47;;;0.60;38.70;;;;;;5010506;28;20464;-67
2022/01/12 06:38:50;;;;;;;47.27;12.10;;;0.50;38.50;;;;;;5041793;22;20505;-65
2022/01/12 06:41:17;;;;;;;48.37;12.17;;;0.50;38.50;;;;;;5029911;28;20470;-66
2022/01/12 06:43:45;;;;;;;47.70;12.53;;;0.50;38.70;;;;;;5030112;28;20466;-65
2022/01/12 06:46:14;;;;;;;50.03;12.60;;;0.40;38.90;;;;;;5025661;28;20495;-68
2022/01/12 06:48:40;;;;;;;45.77;12.47;;;0.50;38.70;;;;;;5028538;28;20578;-67
2022/01/12 06:51:07;;;;;;;48.20;12.77;;;0.50;38.90;;;;;;5030094;28;20455;-65
2022/01/12 06:53:34;;;;;;;50.37;13.70;;;0.50;38.60;;;;;;5028997;28;20471;-67
2022/01/12 06:56:01;;;;;;;49.40;13.07;;;0.40;38.50;;;;;;5028510;28;20493;-68
2022/01/12 06:58:28;;;;;;;49.43;13.17;;;0.40;38.70;;;;;;5022699;28;20470;-69
2022/01/12 07:00:56;;;;;;;50.37;13.57;;;0.40;38.80;;;;;;5025775;28;20463;-69
2022/01/12 07:03:23;;;;;;;50.27;14.50;;;0.40;38.80;;;;;;5030675;28;20505;-68
2022/01/12 07:05:50;;;;;;;47.60;11.77;;;0.40;38.90;;;;;;5030595;28;20574;-68
2022/01/12 07:08:17;;;;;;;48.93;11.90;;;0.40;38.90;;;;;;5028187;28;20837;-67
2022/01/12 07:10:43;;;;;;;48.47;13.80;;;0.40;38.70;;;;;;5024724;28;20475;-66
2022/01/12 07:13:11;;;;;;;48.97;13.40;;;0.40;38.70;;;;;;5027844;28;20454;-66
2022/01/12 07:15:38;;;;;;;46.03;11.00;;;0.40;38.30;;;;;;5028140;28;20565;-69
2022/01/12 07:18:06;;;;;;;50.27;13.53;;;0.40;38.10;;;;;;5029356;28;20459;-66
2022/01/12 07:20:33;;;;;;;48.77;13.03;;;0.30;38.60;;;;;;5021538;28;20463;-63
2022/01/12 07:23:00;;;;;;;49.10;12.97;;;0.30;39.10;;;;;;5027264;28;20475;-68
2022/01/12 07:25:27;;;;;;;49.50;13.57;;;0.30;38.40;;;;;;5044390;22;21032;-64
2022/01/12 07:27:54;;;;;;;48.90;13.90;;;0.30;38.40;;;;;;5021088;28;20467;-61
2022/01/12 07:30:22;;;;;;;49.13;12.70;;;0.40;38.70;;;;;;5028491;28;20473;-65
2022/01/12 07:32:49;;;;;;;48.83;13.30;;;0.30;38.80;;;;;;5028826;28;20459;-64
2022/01/12 07:35:18;;;;;;;48.10;13.27;;;0.20;38.70;;;;;;5027868;28;20493;-65
2022/01/12 07:37:44;;;;;;;51.40;14.43;;;0.30;38.80;;;;;;5027430;28;20474;-65
2022/01/12 07:40:12;;;;;;;51.13;14.70;;;0.20;38.80;;;;;;5028490;28;20986;-65
2022/01/12 07:42:39;;;;;;;51.17;13.57;;;0.20;38.90;;;;;;5022184;28;20459;-64
2022/01/12 07:45:07;;;;;;;52.73;14.93;;;0.20;38.80;;;;;;5028727;28;20479;-65
2022/01/12 07:47:34;;;;;;;49.73;13.10;;;0.30;39.00;;;;;;5020067;28;20480;-64
2022/01/12 07:50:01;;;;;;;51.43;14.60;;;0.30;39.10;;;;;;5029012;28;20490;-64
2022/01/12 07:52:30;;;;;;;53.30;14.70;;;0.30;38.80;;;;;;5025690;28;20471;-64
2022/01/12 07:54:57;;;;;;;50.27;15.77;;;0.30;38.70;;;;;;5028041;28;20536;-65
2022/01/12 07:57:24;;;;;;;47.40;12.50;;;0.30;38.40;;;;;;5020086;28;20447;-64
2022/01/12 07:59:51;;;;;;;48.87;13.50;;;0.30;38.10;;;;;;5021165;28;20814;-65
2022/01/12 08:02:18;;;;;;;49.37;14.20;;;0.30;38.20;;;;;;5028248;28;20823;-65
2022/01/12 08:04:44;;;;;;;57.30;17.90;;;0.30;38.30;;;;;;5026955;28;20481;-64
2022/01/12 08:07:11;;;;;;;52.00;15.63;;;0.30;38.50;;;;;;5025769;28;20471;-64
2022/01/12 08:09:40;;;;;;;53.90;16.90;;;0.40;38.50;;;;;;5020203;28;21020;-64
2022/01/12 08:12:08;;;;;;;54.10;16.70;;;0.40;38.20;;;;;;5027893;28;20481;-65
2022/01/12 08:14:35;;;;;;;47.93;12.77;;;0.50;38.10;;;;;;5028481;28;20479;-64
2022/01/12 08:17:02;;;;;;;46.63;12.60;;;0.50;38.10;;;;;;5029148;28;20467;-65
2022/01/12 08:19:30;;;;;;;49.67;14.80;;;0.50;38.10;;;;;;5027053;28;20498;-65
2022/01/12 08:21:57;;;;;;;53.90;14.27;;;0.60;38.10;;;;;;5029465;28;20509;-65
2022/01/12 08:24:24;;;;;;;50.63;14.70;;;0.70;38.10;;;;;;5028479;28;20459;-67
2022/01/12 08:26:52;;;;;;;50.47;14.17;;;0.70;38.00;;;;;;5028830;28;20454;-65
2022/01/12 08:29:18;;;;;;;50.00;14.80;;;0.70;37.60;;;;;;5027714;28;20856;-64
2022/01/12 08:31:46;;;;;;;48.30;13.87;;;0.80;37.10;;;;;;5026850;28;20467;-64
2022/01/12 08:34:13;;;;;;;52.07;15.00;;;0.80;37.30;;;;;;5025101;28;20466;-66
2022/01/12 08:36:41;;;;;;;53.27;16.10;;;0.80;37.20;;;;;;5026418;28;20467;-65
2022/01/12 08:39:09;;;;;;;50.43;14.60;;;0.80;37.10;;;;;;5026505;28;20988;-66
2022/01/12 08:41:37;;;;;;;50.43;14.50;;;0.80;37.20;;;;;;5026127;28;20473;-66
2022/01/12 08:44:06;;;;;;;47.97;14.43;;;0.90;37.40;;;;;;5027399;28;20460;-64
2022/01/12 08:46:33;;;;;;;52.50;14.97;;;0.90;37.50;;;;;;5027465;28;21037;-65
2022/01/12 08:49:00;;;;;;;51.00;15.90;;;1.00;37.20;;;;;;5029731;28;20517;-64
2022/01/12 08:51:27;;;;;;;51.60;15.80;;;1.00;37.20;;;;;;5031062;28;20956;-64
2022/01/12 08:53:53;;;;;;;50.37;15.47;;;1.10;37.30;;;;;;5030544;28;20459;-64
2022/01/12 08:56:20;;;;;;;50.60;14.80;;;1.10;37.00;;;;;;5023071;28;20501;-64
2022/01/12 08:58:47;;;;;;;53.53;14.37;;;1.10;36.90;;;;;;5017381;28;20849;-63
2022/01/12 09:01:15;;;;;;;51.37;14.10;;;1.20;36.90;;;;;;5025387;28;20482;-63
2022/01/12 09:03:42;;;;;;;50.43;14.27;;;1.20;36.90;;;;;;5032478;28;20517;-65
2022/01/12 09:06:09;;;;;;;51.23;14.60;;;1.30;36.90;;;;;;5032884;28;20479;-64
2022/01/12 09:08:38;;;;;;;52.80;15.67;;;1.40;36.10;;;;;;5031856;28;20470;-64
2022/01/12 09:11:05;;;;;;;52.10;16.80;;;1.40;34.40;;;;;;5018000;28;20557;-65
2022/01/12 09:13:32;;;;;;;53.87;15.97;;;1.40;34.30;;;;;;5027987;28;20474;-64
2022/01/12 09:16:00;;;;;;;54.63;17.47;;;1.40;34.40;;;;;;5026331;28;21154;-64
2022/01/12 09:18:28;;;;;;;53.47;16.03;;;1.30;34.30;;;;;;5024178;28;20505;-65
2022/01/12 09:20:56;;;;;;;52.40;16.50;;;1.20;34.60;;;;;;5031840;28;20961;-65
2022/01/12 09:23:22;;;;;;;55.63;17.03;;;1.20;35.10;;;;;;5029006;28;20497;-65
2022/01/12 09:25:49;;;;;;;51.90;14.73;;;1.20;35.40;;;;;;5026605;28;20486;-64
2022/01/12 09:28:17;;;;;;;51.80;15.10;;;1.30;35.70;;;;;;5022478;28;20886;-64
2022/01/12 09:30:44;;;;;;;50.87;15.70;;;1.30;35.60;;;;;;5031100;28;21054;-64
2022/01/12 09:33:11;;;;;;;51.93;16.47;;;1.50;35.70;;;;;;5029148;28;20473;-64
2022/01/12 09:35:39;;;;;;;53.73;16.27;;;1.60;35.60;;;;;;5031864;28;20493;-65
2022/01/12 09:38:06;;;;;;;54.00;16.77;;;1.70;35.50;;;;;;5029811;28;20470;-66
2022/01/12 09:40:33;;;;;;;50.37;16.20;;;1.90;35.30;;;;;;5022491;28;20973;-64
2022/01/12 09:43:04;;;;;;;51.73;15.60;;;2.00;35.00;;;;;;5024996;28;20521;-64
2022/01/12 09:45:32;;;;;;;52.67;15.37;;;2.10;34.90;;;;;;5022457;28;20491;-66
2022/01/12 09:47:59;;;;;;;52.30;16.50;;;2.10;34.60;;;;;;5028110;28;20466;-64
2022/01/12 09:50:26;;;;;;;52.80;17.80;;;2.20;34.50;;;;;;5030685;28;20482;-68
2022/01/12 09:52:54;;;;;;;55.10;19.17;;;2.30;33.30;;;;;;5030962;28;20463;-68
2022/01/12 09:55:21;;;;;;;53.77;16.60;;;2.30;33.00;;;;;;5032320;28;20493;-64
2022/01/12 09:57:48;;;;;;;58.50;18.37;;;2.30;33.10;;;;;;5032580;28;20463;-63
2022/01/12 10:00:17;;;;;;;53.43;16.87;;;2.30;33.40;;;;;;5029977;28;20953;-65
2022/01/12 10:02:44;;;;;;;51.20;16.50;;;2.40;33.50;;;;;;5033496;28;20508;-64
2022/01/12 10:05:11;;;;;;;53.17;16.40;;;2.40;33.30;;;;;;5029047;28;20511;-69
2022/01/12 10:07:38;;;;;;;61.97;20.97;;;2.40;33.40;;;;;;5023859;28;20463;-64
2022/01/12 10:10:14;;;;;;;54.43;17.27;;;2.40;33.40;;;;;;5023015;28;20486;-66
2022/01/12 10:12:52;;;;;;;53.50;18.93;;;2.50;33.40;;;;;;5030517;28;20466;-66
2022/01/12 10:15:19;;;;;;;53.77;18.03;;;2.50;33.30;;;;;;5027574;28;20489;-66
2022/01/12 10:17:46;;;;;;;54.50;16.53;;;2.50;33.00;;;;;;5018276;28;20475;-68
2022/01/12 10:20:17;;;;;;;50.00;14.80;;;2.60;32.30;;;;;;5024282;28;20463;-67
2022/01/12 10:22:56;;;;;;;53.67;17.77;;;2.50;31.80;;;;;;5025187;28;21090;-64
2022/01/12 10:25:26;;;;;;;53.47;16.97;;;2.50;31.80;;;;;;5028353;28;20495;-64
2022/01/12 10:27:53;;;;;;;54.00;17.83;;;2.60;32.20;;;;;;5031434;28;20465;-64
2022/01/12 10:30:22;;;;;;;53.87;17.53;;;2.60;32.00;;;;;;5029902;28;20544;-66
2022/01/12 10:32:59;;;;;;;52.40;17.00;;;2.60;32.00;;;;;;5029775;28;20462;-65
2022/01/12 10:35:27;;;;;;;55.70;18.13;;;2.60;32.40;;;;;;5027941;28;20490;-65
2022/01/12 10:37:53;;;;;;;54.50;18.73;;;2.60;32.50;;;;;;5027816;28;20973;-64
2022/01/12 10:40:20;;;;;;;55.20;19.00;;;2.70;32.70;;;;;;5027258;28;20474;-65
2022/01/12 10:42:48;;;;;;;52.03;16.60;;;2.80;32.70;;;;;;5021418;28;20470;-65
2022/01/12 10:45:15;;;;;;;56.30;18.47;;;2.90;32.60;;;;;;5029432;28;20494;-63
2022/01/12 10:47:42;;;;;;;51.20;17.63;;;3.00;32.50;;;;;;5030897;28;20461;-65
2022/01/12 10:50:11;;;;;;;54.70;17.53;;;3.10;32.50;;;;;;5029346;28;20509;-66
2022/01/12 10:52:48;;;;;;;53.60;17.40;;;3.30;31.70;;;;;;5030534;28;20549;-67
2022/01/12 10:55:17;;;;;;;53.00;18.20;;;3.40;29.90;;;;;;5026945;28;20508;-67
2022/01/12 10:57:45;;;;;;;52.73;16.30;;;3.50;29.20;;;;;;5025891;28;20455;-64
2022/01/12 11:00:22;;;;;;;56.97;18.17;;;3.40;27.80;;;;;;5031128;28;20455;-65
2022/01/12 11:02:50;;;;;;;53.10;17.57;;;3.30;28.30;;;;;;5029884;28;20465;-65
2022/01/12 11:05:17;;;;;;;49.30;15.30;;;3.10;29.00;;;;;;5026654;28;20483;-65
2022/01/12 11:07:44;;;;;;;49.57;15.63;;;3.10;29.60;;;;;;5028721;28;20528;-63
2022/01/12 11:10:12;;;;;;;50.17;16.17;;;3.10;29.70;;;;;;5029204;28;20482;-66
2022/01/12 11:12:40;;;;;;;51.50;16.30;;;3.20;30.00;;;;;;5028551;28;20463;-65
2022/01/12 11:15:08;;;;;;;54.00;17.87;;;3.40;30.10;;;;;;5025987;28;20479;-65
2022/01/12 11:17:38;;;;;;;52.33;17.00;;;3.60;30.00;;;;;;5026151;28;20474;-65
2022/01/12 11:20:12;;;;;;;58.77;22.93;;;3.70;29.70;;;;;;5027366;28;20546;-64
2022/01/12 11:22:50;;;;;;;52.03;15.70;;;3.90;29.60;;;;;;5022632;28;20558;-63
2022/01/12 11:25:18;;;;;;;49.73;15.97;;;4.20;29.20;;;;;;5025915;28;20494;-64
2022/01/12 11:27:51;;;;;;;59.37;20.40;;;4.40;28.20;;;;;;5023815;28;20949;-64
2022/01/12 11:30:22;;;;;;;50.17;16.43;;;4.50;27.80;;;;;;5019313;28;20570;-68
2022/01/12 11:33:03;;;;;;;51.90;15.70;;;4.60;27.80;;;;;;5027547;28;20473;-67
2022/01/12 11:35:33;;;;;;;51.00;17.40;;;4.70;27.10;;;;;;5026291;28;20478;-65
2022/01/12 11:38:01;;;;;;;51.70;16.63;;;4.70;26.60;;;;;;5019644;28;20486;-64
2022/01/12 11:40:36;;;;;;;55.87;19.07;;;4.80;26.50;;;;;;5030577;28;20459;-63
2022/01/12 11:43:05;;;;;;;50.70;16.50;;;5.00;25.70;;;;;;5021748;28;20459;-63
2022/01/12 11:45:32;;;;;;;54.47;18.73;;;5.00;25.30;;;;;;5029704;28;20882;-64
2022/01/12 11:48:00;;;;;;;52.43;17.17;;;5.10;25.70;;;;;;5028820;28;20458;-65
2022/01/12 11:50:27;;;;;;;48.20;15.73;;;5.10;25.60;;;;;;5027772;28;21292;-67
2022/01/12 11:52:54;;;;;;;47.83;16.07;;;5.10;24.90;;;;;;5028391;28;20459;-65
2022/01/12 11:55:21;;;;;;;51.90;17.30;;;5.30;24.70;;;;;;5028654;28;20487;-64
2022/01/12 11:57:50;;;;;;;48.57;15.10;;;5.30;23.80;;;;;;5023014;28;20463;-62
2022/01/12 12:00:20;;;;;;;50.73;16.23;;;5.20;22.90;;;;;;5025879;28;20462;-64
2022/01/12 12:02:48;;;;;;;54.27;17.23;;;5.20;23.70;;;;;;5025458;28;20459;-64
2022/01/12 12:05:18;;;;;;;54.50;18.13;;;5.20;24.30;;;;;;5028642;28;20471;-63
2022/01/12 12:07:47;;;;;;;51.80;18.13;;;5.60;26.70;;;;;;5022943;28;20471;-64
2022/01/12 12:10:16;;;;;;;51.07;17.43;;;6.30;23.90;;;;;;5028725;28;20490;-64
2022/01/12 12:12:43;;;;;;;49.07;15.90;;;6.60;22.90;;;;;;5027838;28;20956;-64
2022/01/12 12:15:11;;;;;;;51.67;17.17;;;6.90;22.20;;;;;;5021392;28;20548;-65
2022/01/12 12:17:40;;;;;;;51.37;18.70;;;7.00;21.30;;;;;;5028781;28;20467;-63
2022/01/12 12:20:10;;;;;;;50.10;18.53;;;6.80;20.40;;;;;;5018329;28;21020;-63
2022/01/12 12:22:40;;;;;;;54.13;19.80;;;6.60;20.30;;;;;;5027743;28;20455;-63
2022/01/12 12:25:10;;;;;;;54.20;19.50;;;6.40;21.00;;;;;;5030701;28;20584;-62
2022/01/12 12:27:39;;;;;;;49.93;16.70;;;6.10;20.50;;;;;;5032916;28;20534;-63
2022/01/12 12:30:09;;;;;;;50.80;17.20;;;5.90;21.20;;;;;;5031750;28;20494;-65
2022/01/12 12:32:39;;;;;;;51.53;17.07;;;5.70;21.70;;;;;;5032754;28;20465;-64
2022/01/12 12:35:09;;;;;;;48.30;15.87;;;5.40;21.50;;;;;;5031888;28;20490;-64
2022/01/12 12:37:40;;;;;;;55.30;18.57;;;5.20;22.00;;;;;;5023457;28;20868;-65
2022/01/12 12:40:19;;;;;;;53.33;18.17;;;5.00;22.90;;;;;;5030276;28;20508;-61
2022/01/12 12:42:48;;;;;;;52.30;17.77;;;4.90;23.20;;;;;;5027507;28;20450;-65
2022/01/12 12:45:15;;;;;;;53.67;17.40;;;4.80;23.10;;;;;;5032799;28;20477;-61
2022/01/12 12:47:43;;;;;;;50.40;17.07;;;4.80;23.70;;;;;;5033925;28;20478;-64
2022/01/12 12:50:14;;;;;;;53.57;19.10;;;4.70;24.10;;;;;;5032728;28;20502;-62
2022/01/12 12:52:42;;;;;;;51.60;17.60;;;4.70;24.50;;;;;;5030649;28;20556;-63
2022/01/12 12:55:14;;;;;;;54.57;18.83;;;4.70;24.70;;;;;;5033066;28;20471;-63
2022/01/12 12:57:50;;;;;;;52.73;17.80;;;4.80;25.00;;;;;;5029776;28;21008;-62
2022/01/12 13:00:18;;;;;;;53.40;17.80;;;4.90;25.10;;;;;;5030666;28;20454;-63
2022/01/12 13:02:49;;;;;;;51.90;17.73;;;4.80;25.60;;;;;;5029678;28;20516;-63
2022/01/12 13:05:18;;;;;;;56.50;19.97;;;4.70;24.50;;;;;;5025548;28;21000;-60
2022/01/12 13:07:48;;;;;;;55.80;20.40;;;4.50;24.10;;;;;;5029673;28;20467;-60
2022/01/12 13:10:16;;;;;;;53.90;19.87;;;4.40;25.10;;;;;;5025145;28;20482;-65
2022/01/12 13:12:45;;;;;;;52.23;19.33;;;4.40;25.00;;;;;;5023940;28;20523;-61
2022/01/12 13:15:18;;;;;;;55.27;19.20;;;4.30;24.60;;;;;;5031837;28;20474;-60
2022/01/12 13:17:45;;;;;;;53.37;18.93;;;4.20;24.80;;;;;;5030803;28;20939;-62
2022/01/12 13:23:06;;;;;;;53.17;19.30;;;4.10;26.00;;;;;;5025640;28;20471;-61
2022/01/12 13:25:33;;;;;;;56.67;20.80;;;3.90;25.70;;;;;;5027510;28;20570;-61
2022/01/12 13:28:01;;;;;;;54.27;18.10;;;3.90;25.60;;;;;;5031822;28;20455;-66
2022/01/12 13:30:32;;;;;;;51.27;17.07;;;3.70;26.00;;;;;;5025271;28;20866;-63
2022/01/12 13:33:01;;;;;;;53.27;18.40;;;3.60;26.40;;;;;;5029365;28;20866;-62
2022/01/12 13:35:30;;;;;;;55.73;18.17;;;3.60;26.80;;;;;;5030420;28;20481;-62
2022/01/12 13:37:59;;;;;;;55.67;19.93;;;3.60;27.00;;;;;;5031264;28;20463;-63
2022/01/12 13:40:33;;;;;;;55.50;20.33;;;3.70;27.50;;;;;;5022740;28;20455;-62
2022/01/12 13:43:00;;;;;;;53.90;17.93;;;3.80;27.50;;;;;;5027261;28;20946;-63
2022/01/12 13:45:36;;;;;;;55.60;19.00;;;3.80;27.40;;;;;;5029734;28;20463;-63
2022/01/12 13:48:12;;;;;;;57.80;21.43;;;3.90;27.60;;;;;;5030430;28;20902;-63